Time;durP1;ratioP1;P1;durP2;ratioP2;P2;SDS_P1;SDS_P2;PMS_P1;PMS_P2;Temp;Humidity;BMP_temperature;BMP_pressure;BME280_temperature;BME280_humidity;BME280_pressure;Samples;Min_cycle;Max_cycle;Signal;HPM_P1;HPM_P2
2022/11/19 00:01:25;;;;;;;16.20;8.60;;;;;;;-2.02;81.39;97597.27;102525;1302;24243;-70
2022/11/19 00:03:52;;;;;;;12.80;7.90;;;;;;;-2.03;80.69;97599.61;102705;1303;138271;-70
2022/11/19 00:06:21;;;;;;;15.70;8.60;;;;;;;-2.09;80.40;97602.25;102894;1312;22747;-69
2022/11/19 00:08:48;;;;;;;;;;;;;;;-2.14;80.47;97601.81;102925;1304;22879;-70
2022/11/19 00:14:05;;;;;;;15.10;8.90;;;;;;;-2.25;80.28;97602.64;102935;1311;22611;-70
2022/11/19 00:16:32;;;;;;;13.30;7.50;;;;;;;-2.26;80.68;97601.61;102707;1313;138088;-69
2022/11/19 00:18:59;;;;;;;15.30;8.20;;;;;;;-2.27;80.79;97601.97;103062;1292;22485;-69
2022/11/19 00:21:26;;;;;;;14.50;9.30;;;;;;;-2.26;81.07;97596.08;102848;1295;138289;-70
2022/11/19 00:23:53;;;;;;;14.60;8.50;;;;;;;-2.22;81.19;97602.11;102853;1297;24282;-70
2022/11/19 00:26:21;;;;;;;15.70;8.80;;;;;;;-2.24;80.62;97604.79;102865;1295;24262;-69
2022/11/19 00:28:48;;;;;;;14.60;8.40;;;;;;;-2.28;80.57;97607.34;102950;1294;138157;-69
2022/11/19 00:31:16;;;;;;;13.20;7.80;;;;;;;-2.28;80.55;97612.91;102992;1289;24227;-69
2022/11/19 00:33:44;;;;;;;13.30;7.30;;;;;;;-2.32;80.50;97613.35;102912;1313;138525;-69
2022/11/19 00:36:14;;;;;;;13.50;8.20;;;;;;;-2.33;80.30;97619.23;102848;1294;25457;-70
2022/11/19 00:38:41;;;;;;;13.80;8.10;;;;;;;-2.36;80.53;97614.73;102928;1298;22491;-70
2022/11/19 00:41:08;;;;;;;14.50;7.80;;;;;;;-2.36;80.40;97612.64;102765;1314;138052;-70
2022/11/19 00:43:48;;;;;;;13.50;7.20;;;;;;;-2.40;80.01;97614.80;102952;1289;22516;-70
2022/11/19 00:46:27;;;;;;;13.10;7.40;;;;;;;-2.43;80.19;97615.61;102850;1298;138225;-70
2022/11/19 00:48:56;;;;;;;12.80;7.50;;;;;;;-2.45;80.38;97622.59;102887;1313;22572;-70
2022/11/19 00:51:26;;;;;;;12.30;7.80;;;;;;;-2.46;80.41;97617.94;102880;1297;138625;-69
2022/11/19 00:53:53;;;;;;;15.30;8.00;;;;;;;-2.47;80.59;97614.23;102984;1290;22493;-70
2022/11/19 00:56:22;;;;;;;15.50;7.90;;;;;;;-2.48;80.50;97607.98;102861;1297;25340;-69
2022/11/19 00:58:50;;;;;;;13.60;7.70;;;;;;;-2.48;80.75;97615.42;102771;1305;138656;-70
2022/11/19 01:01:19;;;;;;;15.80;7.80;;;;;;;-2.48;81.09;97610.86;102679;1306;24919;-69
2022/11/19 01:03:46;;;;;;;14.10;8.00;;;;;;;-2.47;81.06;97615.18;102732;1309;140006;-69
2022/11/19 01:06:16;;;;;;;10.10;6.70;;;;;;;-2.48;80.80;97613.48;102968;1304;22505;-69
2022/11/19 01:08:44;;;;;;;15.40;7.50;;;;;;;-2.48;80.87;97617.63;103071;1294;24049;-69
2022/11/19 01:11:18;;;;;;;13.20;8.50;;;;;;;-2.50;80.96;97617.27;102944;1294;137857;-69
2022/11/19 01:13:46;;;;;;;15.50;7.90;;;;;;;-2.50;81.01;97619.25;102970;1291;22479;-70
2022/11/19 01:16:24;;;;;;;15.00;8.20;;;;;;;-2.49;80.89;97618.97;102735;1291;138270;-69
2022/11/19 01:18:52;;;;;;;13.70;8.10;;;;;;;-2.50;80.80;97619.81;102805;1289;22517;-69
2022/11/19 01:21:21;;;;;;;13.40;8.70;;;;;;;-2.51;80.95;97621.13;102913;1295;138283;-69
2022/11/19 01:23:48;;;;;;;16.80;8.90;;;;;;;-2.50;81.18;97621.55;102841;1290;22477;-70
2022/11/19 01:26:16;;;;;;;16.00;7.80;;;;;;;-2.48;81.26;97626.79;102781;1290;22496;-70
2022/11/19 01:28:43;;;;;;;15.40;8.80;;;;;;;-2.46;81.21;97635.91;102971;1291;138697;-70
2022/11/19 01:31:13;;;;;;;20.40;8.60;;;;;;;-2.46;81.17;97631.20;102964;1312;22478;-69
2022/11/19 01:33:41;;;;;;;14.50;8.30;;;;;;;-2.44;81.42;97632.02;102819;1304;138130;-69
2022/11/19 01:36:14;;;;;;;15.20;8.60;;;;;;;-2.42;81.72;97638.06;102838;1312;24337;-70
2022/11/19 01:38:41;;;;;;;17.70;8.90;;;;;;;-2.41;81.62;97638.97;102798;1305;25713;-69
2022/11/19 01:41:08;;;;;;;14.10;8.80;;;;;;;-2.40;81.51;97638.88;102784;1295;137952;-69
2022/11/19 01:43:39;;;;;;;12.70;7.80;;;;;;;-2.39;81.52;97640.35;103019;1313;25318;-69
2022/11/19 01:46:07;;;;;;;13.10;8.50;;;;;;;-2.42;81.09;97641.02;102872;1287;138187;-70
2022/11/19 01:48:38;;;;;;;15.70;8.90;;;;;;;-2.47;80.66;97639.30;102719;1311;23358;-69
2022/11/19 01:51:18;;;;;;;12.60;8.60;;;;;;;-2.53;80.69;97634.85;102846;1297;139587;-69
2022/11/19 01:53:48;;;;;;;12.80;8.50;;;;;;;-2.57;81.17;97642.34;102945;1306;24231;-69
2022/11/19 01:56:19;;;;;;;14.40;8.70;;;;;;;-2.60;81.26;97639.09;102889;1302;25455;-70
2022/11/19 01:58:50;;;;;;;17.90;9.40;;;;;;;-2.61;81.74;97643.48;102732;1305;138245;-70
2022/11/19 02:01:19;;;;;;;13.10;8.10;;;;;;;-2.60;81.86;97648.33;102931;1289;22479;-70
2022/11/19 02:03:47;;;;;;;16.10;8.00;;;;;;;-2.62;81.68;97651.21;102678;1302;138193;-70
2022/11/19 02:06:14;;;;;;;16.60;8.70;;;;;;;-2.64;81.13;97654.20;102795;1289;24570;-69
2022/11/19 02:08:48;;;;;;;17.80;9.30;;;;;;;-2.68;81.23;97661.14;102955;1305;25644;-69
2022/11/19 02:11:24;;;;;;;19.50;9.50;;;;;;;-2.75;81.40;97652.20;103057;1290;22505;-69
2022/11/19 02:14:47;;;;;;;16.70;9.20;;;;;;;-2.75;81.39;97656.10;102869;1312;24329;-69
2022/11/19 02:17:22;;;;;;;16.10;8.30;;;;;;;-2.79;81.43;97665.70;101727;1299;138624;-70
2022/11/19 02:20:26;;;;;;;21.00;8.60;;;;;;;-2.82;81.60;97667.13;101893;1320;22602;-69
2022/11/19 02:23:35;;;;;;;16.10;8.30;;;;;;;-2.87;81.80;97668.12;101863;1316;139960;-69
2022/11/19 02:26:23;;;;;;;15.60;8.40;;;;;;;-2.91;81.85;97680.04;101933;1312;25165;-69
2022/11/19 02:28:58;;;;;;;16.90;8.80;;;;;;;-2.95;82.34;97681.39;101946;1318;138162;-69
2022/11/19 02:31:49;;;;;;;14.60;8.80;;;;;;;-2.97;82.29;97687.81;102065;1321;22897;-70
2022/11/19 02:34:28;;;;;;;15.30;9.00;;;;;;;-2.99;82.34;97691.02;101947;1318;138703;-70
2022/11/19 02:37:04;;;;;;;16.60;9.00;;;;;;;-3.00;82.41;97705.05;101905;1318;22504;-70
2022/11/19 02:39:37;;;;;;;15.50;9.10;;;;;;;-3.01;82.42;97709.33;101556;1321;138956;-69
2022/11/19 02:42:13;;;;;;;15.20;9.10;;;;;;;-3.03;82.73;97699.90;101693;1318;22761;-70
2022/11/19 02:44:58;;;;;;;14.50;8.60;;;;;;;-3.02;82.87;97702.06;101675;1306;22502;-69
2022/11/19 02:47:44;;;;;;;21.20;9.40;;;;;;;-3.02;83.08;97705.27;102004;1296;25376;-69
2022/11/19 02:50:35;;;;;;;17.70;9.10;;;;;;;-3.03;82.99;97706.23;101753;1302;22518;-70
2022/11/19 02:53:04;;;;;;;17.50;10.10;;;;;;;-3.04;83.22;97703.14;101881;1296;138623;-69
2022/11/19 02:55:31;;;;;;;16.90;9.90;;;;;;;-3.04;83.08;97702.51;102825;1283;22477;-69
2022/11/19 02:58:01;;;;;;;17.60;10.10;;;;;;;-3.06;83.09;97710.48;102677;1291;139834;-69
2022/11/19 03:06:19;;;;;;;18.90;10.30;;;;;;;-3.06;83.61;97736.42;102777;1290;22537;-69
2022/11/19 03:08:46;;;;;;;18.00;10.30;;;;;;;-3.05;83.57;97734.87;102864;1294;25255;-70
2022/11/19 03:11:21;;;;;;;13.60;9.00;;;;;;;-3.03;83.63;97740.71;102710;1291;138181;-69
2022/11/19 03:16:42;;;;;;;17.40;9.90;;;;;;;-3.01;83.67;97742.05;102689;1295;138792;-69
2022/11/19 03:19:39;;;;;;;15.50;10.40;;;;;;;-2.99;83.77;97737.96;102842;1305;22484;-69
2022/11/19 03:22:14;;;;;;;19.50;10.10;;;;;;;-2.97;83.92;97737.31;102639;1297;138795;-70
2022/11/19 03:24:46;;;;;;;17.30;10.10;;;;;;;-2.93;83.95;97737.39;102818;1291;25222;-69
2022/11/19 03:27:32;;;;;;;20.00;11.30;;;;;;;-2.89;84.01;97740.52;102723;1312;138417;-69
2022/11/19 03:30:02;;;;;;;20.70;11.10;;;;;;;-2.85;83.89;97740.59;102841;1299;25468;-70
2022/11/19 03:32:34;;;;;;;18.60;10.50;;;;;;;-2.82;83.78;97742.38;102866;1298;22493;-69
2022/11/19 03:35:06;;;;;;;17.30;11.30;;;;;;;-2.80;83.62;97741.42;102603;1307;138363;-69
2022/11/19 03:37:37;;;;;;;19.20;11.10;;;;;;;-2.78;83.78;97745.81;102842;1288;23258;-69
2022/11/19 03:40:08;;;;;;;18.50;11.40;;;;;;;-2.76;83.80;97745.05;102681;1313;138363;-70
2022/11/19 03:42:36;;;;;;;15.70;8.40;;;;;;;-2.76;83.61;97751.30;102875;1303;22484;-69
2022/11/19 03:45:12;;;;;;;19.10;10.90;;;;;;;-2.77;83.25;97753.03;102783;1291;138271;-69
2022/11/19 03:47:42;;;;;;;15.90;10.40;;;;;;;-2.78;83.44;97754.52;102819;1305;23349;-69
2022/11/19 03:50:17;;;;;;;15.40;9.90;;;;;;;-2.76;83.80;97755.77;102806;1287;22487;-69
2022/11/19 03:52:44;;;;;;;19.20;10.00;;;;;;;-2.77;83.46;97759.23;102744;1300;138785;-70
2022/11/19 03:55:12;;;;;;;17.40;10.50;;;;;;;-2.80;83.30;97758.15;102769;1303;22508;-69
2022/11/19 03:57:39;;;;;;;20.60;11.30;;;;;;;-2.80;83.32;97763.65;102692;1300;138391;-70
2022/11/19 04:00:07;;;;;;;18.40;10.40;;;;;;;-2.80;83.49;97768.64;102834;1302;25293;-69
2022/11/19 04:02:39;;;;;;;20.30;10.70;;;;;;;-2.83;83.25;97764.70;102841;1291;26498;-69
2022/11/19 04:05:08;;;;;;;19.70;10.90;;;;;;;-2.84;83.61;97764.35;102771;1292;138736;-69
2022/11/19 04:07:35;;;;;;;22.90;11.00;;;;;;;-2.84;83.67;97766.48;103016;1292;25322;-69
2022/11/19 04:10:02;;;;;;;20.60;11.50;;;;;;;-2.83;83.82;97769.33;102776;1298;138295;-69
2022/11/19 04:12:28;;;;;;;18.40;10.70;;;;;;;-2.81;83.94;97769.48;102752;1295;24244;-69
2022/11/19 04:14:55;;;;;;;18.10;11.20;;;;;;;-2.80;83.65;97770.60;102876;1291;22532;-69
2022/11/19 04:17:22;;;;;;;17.20;10.50;;;;;;;-2.80;83.44;97773.64;102829;1284;138476;-70
2022/11/19 04:19:49;;;;;;;19.80;11.20;;;;;;;-2.83;83.28;97779.12;102931;1290;22488;-69
2022/11/19 04:22:16;;;;;;;17.10;9.80;;;;;;;-2.86;83.05;97780.67;102746;1290;138796;-69
2022/11/19 04:24:43;;;;;;;18.70;10.80;;;;;;;-2.87;82.96;97781.18;102764;1287;22481;-69
2022/11/19 04:27:10;;;;;;;17.70;10.30;;;;;;;-2.89;83.18;97780.54;102700;1300;140333;-69
2022/11/19 04:29:37;;;;;;;17.30;10.70;;;;;;;-2.92;83.36;97779.90;102799;1290;24307;-69
2022/11/19 04:32:04;;;;;;;19.40;10.90;;;;;;;-2.92;83.74;97775.30;102793;1294;25259;-69
2022/11/19 04:34:31;;;;;;;16.20;9.30;;;;;;;-2.90;83.60;97780.27;102606;1292;138621;-69
2022/11/19 04:36:58;;;;;;;19.60;10.50;;;;;;;-2.93;83.39;97781.93;102713;1306;25407;-69
2022/11/19 04:39:25;;;;;;;19.30;11.20;;;;;;;-2.94;83.35;97788.81;102673;1290;159785;-69
2022/11/19 04:41:52;;;;;;;20.00;10.70;;;;;;;-2.95;83.45;97786.62;102845;1312;25366;-69
2022/11/19 04:44:19;;;;;;;18.40;10.60;;;;;;;-2.95;83.48;97785.95;102543;1312;151464;-69
2022/11/19 04:46:46;;;;;;;17.20;9.90;;;;;;;-2.95;83.39;97784.85;102662;1298;139141;-69
2022/11/19 04:49:13;;;;;;;21.50;11.90;;;;;;;-2.93;83.80;97781.64;102811;1292;22491;-69
2022/11/19 04:51:39;;;;;;;18.70;10.00;;;;;;;-2.90;83.83;97788.22;102653;1289;138533;-69
2022/11/19 04:54:09;;;;;;;21.00;11.40;;;;;;;-2.89;83.88;97794.34;102904;1293;23234;-69
2022/11/19 04:56:36;;;;;;;22.60;12.60;;;;;;;-2.88;84.07;97797.63;102805;1288;24264;-69
2022/11/19 04:59:03;;;;;;;18.30;10.00;;;;;;;-2.88;83.89;97800.03;102763;1291;138269;-69
2022/11/19 05:01:30;;;;;;;18.20;10.70;;;;;;;-2.87;83.72;97798.33;102760;1290;22482;-69
2022/11/19 05:03:57;;;;;;;18.70;11.00;;;;;;;-2.87;83.46;97807.92;102690;1298;138405;-70
2022/11/19 05:06:24;;;;;;;19.30;11.70;;;;;;;-2.85;83.70;97811.14;102871;1293;23107;-69
2022/11/19 05:08:51;;;;;;;21.90;12.20;;;;;;;-2.82;83.80;97817.68;102910;1290;22934;-69
2022/11/19 05:11:18;;;;;;;17.20;10.70;;;;;;;-2.79;83.78;97819.00;102814;1291;138165;-69
2022/11/19 05:13:45;;;;;;;19.40;10.80;;;;;;;-2.75;83.98;97822.77;102903;1291;26515;-69
2022/11/19 05:16:12;;;;;;;21.20;12.00;;;;;;;-2.70;84.12;97824.67;102780;1289;138276;-69
2022/11/19 05:18:39;;;;;;;23.30;11.50;;;;;;;-2.65;83.86;97826.63;102897;1289;22495;-69
2022/11/19 05:21:06;;;;;;;20.50;11.70;;;;;;;-2.62;83.93;97830.88;102556;1284;139310;-69
2022/11/19 05:23:33;;;;;;;21.90;11.80;;;;;;;-2.59;83.36;97840.66;102926;1312;22489;-69
2022/11/19 05:26:00;;;;;;;22.90;11.90;;;;;;;-2.56;83.30;97847.59;102934;1290;25386;-69
2022/11/19 05:28:27;;;;;;;18.80;11.60;;;;;;;-2.54;82.94;97854.95;102838;1291;138374;-69
2022/11/19 05:30:54;;;;;;;22.30;12.10;;;;;;;-2.50;83.21;97864.52;102852;1308;22887;-69
2022/11/19 05:33:21;;;;;;;21.40;12.10;;;;;;;-2.44;83.32;97865.50;102749;1290;138514;-69
2022/11/19 05:35:48;;;;;;;23.20;12.70;;;;;;;-2.38;83.41;97870.08;102905;1290;22525;-69
2022/11/19 05:38:15;;;;;;;23.10;13.10;;;;;;;-2.33;83.62;97867.44;102884;1292;25331;-69
2022/11/19 05:40:44;;;;;;;24.40;13.60;;;;;;;-2.26;83.62;97876.49;102732;1289;138235;-69
2022/11/19 05:43:12;;;;;;;28.20;15.40;;;;;;;-2.22;83.20;97883.13;103020;1312;22859;-69
2022/11/19 05:45:38;;;;;;;28.40;14.20;;;;;;;-2.19;83.22;97887.02;102809;1289;138487;-69
2022/11/19 05:48:06;;;;;;;20.80;12.80;;;;;;;-2.15;82.91;97885.58;102935;1295;23918;-69
2022/11/19 05:50:33;;;;;;;23.40;12.80;;;;;;;-2.15;82.23;97883.38;102878;1297;23443;-69
2022/11/19 05:53:04;;;;;;;;;;;;;;;-2.14;81.97;97884.76;102838;1312;138539;-69
2022/11/19 05:55:31;;;;;;;19.40;10.50;;;;;;;-2.18;81.57;97893.64;102822;1290;22891;-69
2022/11/19 05:57:58;;;;;;;22.70;11.50;;;;;;;-2.25;81.33;97893.59;102702;1289;138293;-69
2022/11/19 06:00:28;;;;;;;20.90;11.70;;;;;;;-2.30;81.37;97894.76;102656;1313;22480;-69
2022/11/19 06:02:55;;;;;;;24.90;12.30;;;;;;;-2.31;81.74;97899.14;103040;1298;22969;-69
2022/11/19 06:05:22;;;;;;;20.70;12.10;;;;;;;-2.28;82.32;97907.30;102999;1312;139107;-69
2022/11/19 06:07:49;;;;;;;21.80;12.40;;;;;;;-2.26;81.86;97910.33;103063;1297;25415;-69
2022/11/19 06:10:17;;;;;;;21.60;11.40;;;;;;;-2.26;82.11;97916.20;103119;1291;138433;-69
2022/11/19 06:12:44;;;;;;;22.00;12.80;;;;;;;-2.26;82.18;97926.16;103278;1284;22520;-69
2022/11/19 06:15:11;;;;;;;21.60;11.90;;;;;;;-2.25;82.35;97934.19;103047;1298;138843;-69
2022/11/19 06:17:38;;;;;;;18.80;9.40;;;;;;;-2.25;82.03;97942.73;103020;1287;23469;-69
2022/11/19 06:20:09;;;;;;;21.90;12.30;;;;;;;-2.36;81.70;97944.45;103848;1291;51937;-70
2022/11/19 06:22:37;;;;;;;20.30;11.50;;;;;;;-2.44;82.05;97943.80;103206;1298;138403;-70
2022/11/19 06:25:06;;;;;;;17.00;11.10;;;;;;;-2.48;82.12;97943.89;102993;1312;23095;-69
2022/11/19 06:27:34;;;;;;;16.90;10.30;;;;;;;-2.53;82.47;97942.69;102986;1291;138582;-69
2022/11/19 06:30:01;;;;;;;18.90;10.80;;;;;;;-2.57;82.68;97936.94;102861;1291;24516;-69
2022/11/19 06:32:28;;;;;;;22.20;11.40;;;;;;;-2.59;83.33;97936.81;102841;1307;22493;-69
2022/11/19 06:34:55;;;;;;;19.20;10.70;;;;;;;-2.60;82.92;97940.80;102822;1291;138472;-69
2022/11/19 06:37:22;;;;;;;20.40;11.20;;;;;;;-2.62;83.08;97941.36;102936;1289;23344;-69
2022/11/19 06:39:49;;;;;;;19.40;10.50;;;;;;;-2.61;83.46;97953.84;102959;1284;138609;-69
2022/11/19 06:42:35;;;;;;;20.20;9.30;;;;;;;-2.60;83.41;97960.51;103377;1294;25217;-69
2022/11/19 06:45:11;;;;;;;17.60;9.90;;;;;;;-2.61;83.03;97967.27;102961;1281;22540;-69
2022/11/19 06:47:39;;;;;;;15.10;9.20;;;;;;;-2.65;83.18;97976.88;102678;1291;22578;-69
2022/11/19 06:50:08;;;;;;;13.40;9.50;;;;;;;-2.68;82.92;97984.03;102918;1294;23421;-69
2022/11/19 06:52:35;;;;;;;15.70;10.20;;;;;;;-2.71;82.95;97991.80;102871;1312;138472;-69
2022/11/19 06:55:03;;;;;;;17.00;10.00;;;;;;;-2.71;83.39;97991.27;103029;1291;22547;-69
2022/11/19 06:57:30;;;;;;;15.70;9.00;;;;;;;-2.70;83.16;97991.86;102788;1303;141013;-69
2022/11/19 06:59:57;;;;;;;14.10;9.00;;;;;;;-2.70;83.12;97996.64;102996;1285;22723;-69
2022/11/19 07:02:24;;;;;;;14.40;8.70;;;;;;;-2.71;82.96;97999.80;102823;1298;22489;-69
2022/11/19 07:04:50;;;;;;;15.20;7.90;;;;;;;-2.70;83.10;98001.13;102820;1314;138084;-69
2022/11/19 07:07:17;;;;;;;15.90;8.30;;;;;;;-2.72;82.91;98006.05;102813;1314;24320;-69
2022/11/19 07:09:44;;;;;;;14.60;9.10;;;;;;;-2.74;82.46;98008.63;102848;1314;138316;-69
2022/11/19 07:12:11;;;;;;;16.20;9.40;;;;;;;-2.74;82.72;98011.46;102804;1300;23933;-69
2022/11/19 07:14:38;;;;;;;15.60;9.70;;;;;;;-2.70;83.00;98008.72;103308;1298;23962;-70
2022/11/19 07:17:05;;;;;;;17.10;9.60;;;;;;;-2.63;83.14;98005.33;102946;1299;138251;-69
2022/11/19 07:19:32;;;;;;;16.00;9.30;;;;;;;-2.59;83.19;98003.61;102947;1281;22752;-69
2022/11/19 07:21:59;;;;;;;15.00;10.50;;;;;;;-2.53;83.25;98008.40;103132;1290;138397;-69
2022/11/19 07:24:26;;;;;;;15.20;9.70;;;;;;;-2.49;82.67;98014.93;102986;1288;22480;-69
2022/11/19 07:26:54;;;;;;;15.00;9.60;;;;;;;-2.47;82.68;98013.33;102679;1286;22524;-69
2022/11/19 07:29:21;;;;;;;15.10;9.30;;;;;;;-2.46;82.34;98018.83;102660;1291;139513;-69
2022/11/19 07:31:49;;;;;;;15.50;8.80;;;;;;;-2.43;82.16;98023.48;102903;1290;22917;-69
2022/11/19 07:34:16;;;;;;;20.10;9.90;;;;;;;-2.45;81.69;98019.27;102726;1289;138076;-69
2022/11/19 07:36:44;;;;;;;13.90;8.40;;;;;;;-2.47;81.61;98018.06;103235;1284;23259;-69
2022/11/19 07:39:11;;;;;;;17.10;9.10;;;;;;;-2.49;81.71;98016.11;102818;1290;138262;-70
2022/11/19 07:44:24;;;;;;;15.00;9.40;;;;;;;-2.50;81.75;98013.59;103279;1289;22751;-69
2022/11/19 07:46:51;;;;;;;15.90;8.30;;;;;;;-2.47;81.77;98019.36;102825;1298;138613;-69
2022/11/19 07:49:19;;;;;;;17.20;9.60;;;;;;;-2.49;81.05;98017.98;102809;1291;24247;-69
2022/11/19 07:51:46;;;;;;;15.90;9.50;;;;;;;-2.53;81.57;98023.84;103322;1285;139911;-69
2022/11/19 07:54:13;;;;;;;17.50;9.70;;;;;;;-2.51;81.49;98029.38;103371;1291;22496;-69
2022/11/19 07:56:41;;;;;;;16.70;8.90;;;;;;;-2.51;81.24;98028.40;103862;1287;25209;-69
2022/11/19 07:59:08;;;;;;;15.90;10.00;;;;;;;-2.46;81.76;98030.02;102908;1290;138572;-69
2022/11/19 08:01:36;;;;;;;15.60;9.70;;;;;;;-2.38;81.74;98028.45;103112;1312;22487;-69
2022/11/19 08:04:04;;;;;;;17.00;10.50;;;;;;;-2.31;81.77;98026.96;102857;1299;138178;-69
2022/11/19 08:06:33;;;;;;;15.70;8.00;;;;;;;-2.23;82.07;98027.66;102803;1315;22503;-74
2022/11/19 08:09:02;;;;;;;20.50;11.20;;;;;;;-1.93;85.22;98028.10;102759;1315;25255;-69
2022/11/19 08:11:30;;;;;;;;;;;;;;;-1.77;81.96;98029.84;103017;1297;139539;-69
2022/11/19 08:14:00;;;;;;;22.10;10.90;;;;;;;-1.71;81.43;98029.73;103015;1312;22611;-70
2022/11/19 08:19:15;;;;;;;15.90;10.00;;;;;;;-1.65;80.92;98030.33;103173;1307;22483;-69
2022/11/19 08:21:44;;;;;;;18.10;10.80;;;;;;;-1.60;80.87;98031.59;102950;1297;138508;-70
2022/11/19 08:24:13;;;;;;;15.80;9.30;;;;;;;-1.54;80.53;98029.30;102079;1312;1322340;-70
2022/11/19 08:26:41;;;;;;;16.80;10.20;;;;;;;-1.51;80.08;98029.23;102971;1305;25561;-70
2022/11/19 08:29:08;;;;;;;18.20;10.00;;;;;;;-1.49;80.07;98031.31;102878;1284;138347;-70
2022/11/19 08:31:36;;;;;;;15.50;10.40;;;;;;;-1.49;79.59;98033.41;102945;1305;22634;-70
2022/11/19 08:34:03;;;;;;;15.80;9.40;;;;;;;-1.46;79.52;98035.16;102819;1291;138287;-70
2022/11/19 08:36:31;;;;;;;16.20;10.30;;;;;;;-1.40;79.54;98032.94;102856;1282;22530;-69
2022/11/19 08:39:08;;;;;;;18.80;9.20;;;;;;;-1.36;79.67;98034.75;103045;1289;22494;-70
2022/11/19 08:44:20;;;;;;;18.80;10.30;;;;;;;-1.41;78.38;98036.89;102955;1292;22842;-70
2022/11/19 08:46:49;;;;;;;17.10;9.90;;;;;;;-1.46;78.01;98043.38;102781;1312;138483;-70
2022/11/19 08:49:16;;;;;;;18.20;10.90;;;;;;;-1.53;78.31;98044.35;102899;1305;22526;-70
2022/11/19 08:51:43;;;;;;;19.60;10.70;;;;;;;-1.56;78.34;98052.75;102810;1284;138840;-70
2022/11/19 08:54:11;;;;;;;17.30;11.10;;;;;;;-1.58;78.40;98057.94;102996;1291;24337;-69
2022/11/19 08:56:38;;;;;;;16.30;10.30;;;;;;;-1.61;77.90;98067.08;103010;1287;22479;-70
2022/11/19 08:59:05;;;;;;;17.40;10.60;;;;;;;-1.65;78.20;98067.84;102870;1305;138281;-70
2022/11/19 09:01:32;;;;;;;16.10;10.10;;;;;;;-1.64;78.50;98073.23;102935;1291;25396;-70
2022/11/19 09:03:59;;;;;;;15.20;9.90;;;;;;;-1.63;78.51;98068.35;102827;1298;139079;-70
2022/11/19 09:06:26;;;;;;;17.10;10.10;;;;;;;-1.62;78.20;98073.18;102989;1306;22732;-69
2022/11/19 09:08:53;;;;;;;22.30;11.70;;;;;;;-1.62;78.37;98076.39;102861;1300;23068;-69
2022/11/19 09:11:21;;;;;;;15.20;9.40;;;;;;;-1.62;78.48;98079.39;102899;1284;138308;-69
2022/11/19 09:13:48;;;;;;;18.30;10.40;;;;;;;-1.63;78.15;98076.50;103011;1308;22547;-69
2022/11/19 09:16:15;;;;;;;17.30;10.60;;;;;;;-1.67;78.22;98073.61;102776;1291;138384;-69
2022/11/19 09:18:42;;;;;;;19.00;10.70;;;;;;;-1.69;78.25;98069.93;104218;1290;22494;-70
2022/11/19 09:21:10;;;;;;;15.10;9.90;;;;;;;-1.73;77.70;98070.48;102685;1283;22483;-69
2022/11/19 09:23:38;;;;;;;16.20;10.50;;;;;;;-1.78;77.85;98071.91;102538;1290;138703;-69
2022/11/19 09:26:12;;;;;;;16.40;10.40;;;;;;;-1.77;78.19;98069.36;102765;1293;25668;-69
2022/11/19 09:28:40;;;;;;;22.40;11.10;;;;;;;-1.74;78.27;98072.09;103798;1312;140409;-70
2022/11/19 09:31:16;;;;;;;18.60;9.90;;;;;;;-1.71;78.36;98075.80;103776;1300;23508;-70
2022/11/19 09:33:47;;;;;;;17.00;11.10;;;;;;;-1.70;78.54;98076.20;104046;1305;138257;-70
2022/11/19 09:36:16;;;;;;;19.10;11.10;;;;;;;-1.64;78.54;98082.67;102706;1283;22494;-71
2022/11/19 09:38:43;;;;;;;18.60;10.90;;;;;;;-1.56;78.41;98082.62;102749;1313;22520;-70
2022/11/19 09:41:19;;;;;;;17.20;9.90;;;;;;;-1.46;78.32;98078.62;102314;1299;138953;-69
2022/11/19 09:44:11;;;;;;;16.60;10.00;;;;;;;-1.42;77.31;98075.98;102607;1288;22987;-70
2022/11/19 09:46:56;;;;;;;15.40;9.50;;;;;;;-1.43;76.62;98074.69;102546;1312;139839;-70
2022/11/19 09:49:30;;;;;;;17.80;10.40;;;;;;;-1.43;76.21;98081.11;102764;1299;22566;-69
2022/11/19 09:52:04;;;;;;;12.70;9.10;;;;;;;-1.42;76.51;98084.77;102758;1307;138569;-69
2022/11/19 09:54:31;;;;;;;17.00;10.00;;;;;;;-1.42;76.09;98082.26;102852;1289;22490;-69
2022/11/19 09:57:05;;;;;;;19.60;11.40;;;;;;;-1.40;76.28;98082.95;102729;1291;22599;-70
2022/11/19 09:59:39;;;;;;;20.70;10.10;;;;;;;-1.35;76.42;98083.42;102569;1305;138108;-70
2022/11/19 10:02:20;;;;;;;17.70;10.10;;;;;;;-1.30;75.63;98086.30;102595;1281;22528;-69
2022/11/19 10:04:50;;;;;;;15.90;9.60;;;;;;;-1.29;75.89;98086.94;102564;1290;138262;-70
2022/11/19 10:07:48;;;;;;;17.30;10.50;;;;;;;-1.27;75.50;98085.73;102410;1313;24523;-70
2022/11/19 10:10:15;;;;;;;18.40;11.40;;;;;;;-1.18;76.09;98086.02;102743;1291;138257;-70
2022/11/19 10:12:54;;;;;;;18.60;10.90;;;;;;;-1.09;76.04;98087.28;102832;1300;22485;-70
2022/11/19 10:15:30;;;;;;;15.50;10.10;;;;;;;-0.99;75.99;98091.19;102666;1305;138622;-70
2022/11/19 10:18:34;;;;;;;15.70;10.00;;;;;;;-0.97;75.18;98088.39;102839;1312;22735;-70
2022/11/19 10:21:27;;;;;;;18.40;10.60;;;;;;;-0.95;74.39;98085.67;102688;1303;22514;-71
2022/11/19 10:24:21;;;;;;;18.70;10.40;;;;;;;-0.87;75.01;98084.79;102671;1284;23173;-69
2022/11/19 10:26:59;;;;;;;17.80;10.30;;;;;;;-0.79;74.85;98082.77;102574;1290;22487;-70
2022/11/19 10:29:36;;;;;;;23.20;12.30;;;;;;;-0.74;75.22;98081.84;102775;1312;137826;-70
2022/11/19 10:32:40;;;;;;;16.70;10.60;;;;;;;-0.65;74.98;98087.11;102845;1291;24302;-70
2022/11/19 10:35:16;;;;;;;20.90;11.90;;;;;;;-0.58;74.52;98086.82;102698;1307;137822;-70
2022/11/19 10:37:53;;;;;;;17.30;10.80;;;;;;;-0.52;73.57;98084.58;102944;1303;24393;-70
2022/11/19 10:40:23;;;;;;;19.90;11.70;;;;;;;-0.50;73.24;98083.47;102780;1291;137885;-70
2022/11/19 10:43:19;;;;;;;18.40;10.20;;;;;;;-0.43;74.30;98081.11;103157;1284;22512;-74
2022/11/19 10:45:46;;;;;;;18.40;11.20;;;;;;;-0.16;75.67;98073.61;101991;1296;138338;-70
2022/11/19 10:48:21;;;;;;;20.40;12.30;;;;;;;0.01;74.54;98077.41;102168;1297;22489;-70
2022/11/19 10:50:48;;;;;;;20.70;12.10;;;;;;;0.10;73.60;98074.76;102255;1296;22631;-70
2022/11/19 10:53:42;;;;;;;21.10;11.80;;;;;;;0.14;73.29;98074.80;102233;1296;137856;-71
2022/11/19 10:56:14;;;;;;;20.20;12.70;;;;;;;0.17;72.80;98070.30;102145;1309;25335;-70
2022/11/19 10:58:48;;;;;;;21.70;12.00;;;;;;;0.19;72.66;98064.41;102079;1317;137665;-70
2022/11/19 11:01:32;;;;;;;20.20;12.00;;;;;;;0.21;72.47;98058.32;102400;1297;25076;-70
2022/11/19 11:04:01;;;;;;;19.40;11.70;;;;;;;0.18;71.66;98068.10;102122;1297;137856;-70
2022/11/19 11:06:54;;;;;;;22.90;12.70;;;;;;;0.15;71.54;98063.58;102177;1304;22496;-70
2022/11/19 11:09:36;;;;;;;21.10;11.20;;;;;;;0.10;71.35;98061.08;101819;1296;24228;-71
2022/11/19 11:15:17;;;;;;;19.50;11.90;;;;;;;-0.02;71.17;98063.38;102328;1297;25298;-71
2022/11/19 11:17:46;;;;;;;19.30;12.00;;;;;;;-0.17;70.74;98067.00;102634;1290;137877;-70
2022/11/19 11:20:16;;;;;;;;;;;;;;;-0.34;70.86;98066.86;102890;1294;22484;-70
2022/11/19 11:22:47;;;;;;;20.80;12.00;;;;;;;-0.51;71.62;98077.61;102628;1297;124481;-70
2022/11/19 11:25:31;;;;;;;21.80;11.60;;;;;;;-0.59;72.19;98082.31;102711;1315;22492;-70
2022/11/19 11:28:13;;;;;;;16.90;9.90;;;;;;;-0.67;72.52;98086.44;102831;1289;138579;-70
2022/11/19 11:31:03;;;;;;;16.90;9.30;;;;;;;-0.74;72.21;98088.74;103194;1289;24257;-70
2022/11/19 11:33:33;;;;;;;19.90;10.20;;;;;;;-0.83;72.25;98089.84;103632;1312;137738;-70
2022/11/19 11:36:18;;;;;;;19.50;10.80;;;;;;;-0.92;72.55;98092.33;102824;1312;24318;-70
2022/11/19 11:38:52;;;;;;;21.60;11.20;;;;;;;-1.02;72.90;98094.37;102850;1312;22499;-70
2022/11/19 11:41:23;;;;;;;18.40;11.00;;;;;;;-1.08;73.58;98095.64;102722;1300;141133;-70
2022/11/19 11:44:00;;;;;;;21.00;10.80;;;;;;;-1.04;74.32;98094.46;102768;1283;23436;-70
2022/11/19 11:46:47;;;;;;;17.30;11.70;;;;;;;-0.99;73.92;98093.45;102592;1306;138468;-70
2022/11/19 11:49:34;;;;;;;21.30;10.80;;;;;;;-0.94;73.81;98094.16;102777;1299;25416;-70
2022/11/19 11:52:03;;;;;;;18.50;10.50;;;;;;;-0.90;73.49;98094.95;102679;1312;138797;-70
2022/11/19 11:54:32;;;;;;;19.50;10.20;;;;;;;-0.85;73.41;98090.59;102849;1290;22547;-70